createdAt,value
2022-12-11T00:01:52.853Z,100450.27
2022-12-11T00:04:24.161Z,100451.89
2022-12-11T00:06:54.597Z,100451.23
2022-12-11T00:09:25.163Z,100449.20
2022-12-11T00:11:56.434Z,100450.00
2022-12-11T00:14:27.261Z,100446.15
2022-12-11T00:16:57.892Z,100454.02
2022-12-11T00:19:28.221Z,100452.47
2022-12-11T00:21:58.813Z,100449.80
2022-12-11T00:24:29.787Z,100449.75
2022-12-11T00:27:00.961Z,100439.83
2022-12-11T00:29:31.641Z,100443.93
2022-12-11T00:32:02.641Z,100437.72
2022-12-11T00:34:33.025Z,100437.65
2022-12-11T00:37:03.429Z,100434.45
2022-12-11T00:39:34.265Z,100430.73
2022-12-11T00:42:05.446Z,100423.83
2022-12-11T00:44:36.594Z,100424.89
2022-12-11T00:47:08.569Z,100425.00
2022-12-11T00:49:39.189Z,100427.27
2022-12-11T00:52:10.851Z,100430.56
2022-12-11T00:54:41.157Z,100434.04
2022-12-11T00:57:12.108Z,100436.52
2022-12-11T00:59:42.711Z,100442.14
2022-12-11T01:02:13.795Z,100444.26
2022-12-11T01:04:44.080Z,100448.11
2022-12-11T01:07:15.053Z,100450.26
2022-12-11T01:10:03.239Z,100449.66
2022-12-11T01:12:34.216Z,100453.38
2022-12-11T01:15:06.200Z,100454.56
2022-12-11T01:17:37.193Z,100455.77
2022-12-11T01:20:09.386Z,100449.23
2022-12-11T01:22:39.762Z,100449.52
2022-12-11T01:25:11.161Z,100448.70
2022-12-11T01:27:41.841Z,100452.42
2022-12-11T01:30:14.549Z,100450.65
2022-12-11T01:32:45.001Z,100452.48
2022-12-11T01:35:16.072Z,100450.50
2022-12-11T01:37:47.043Z,100446.08
2022-12-11T01:40:19.769Z,100444.49
2022-12-11T01:42:50.423Z,100442.17
2022-12-11T01:45:33.507Z,100445.48
2022-12-11T01:48:09.551Z,100441.99
2022-12-11T01:50:43.223Z,100444.55
2022-12-11T01:53:18.642Z,100442.08
2022-12-11T01:55:52.351Z,100438.02
2022-12-11T01:58:26.563Z,100442.09
2022-12-11T02:00:58.090Z,100439.31
2022-12-11T02:03:29.094Z,100439.94
2022-12-11T02:06:03.063Z,100439.02
2022-12-11T02:08:34.291Z,100442.19
2022-12-11T02:11:11.847Z,100445.66
2022-12-11T02:13:53.864Z,100449.20
2022-12-11T02:16:34.109Z,100454.65
2022-12-11T02:19:15.970Z,100449.94
2022-12-11T02:21:54.054Z,100448.15
2022-12-11T02:24:30.147Z,100449.29
2022-12-11T02:27:24.435Z,100446.95
2022-12-11T02:30:01.222Z,100445.57
2022-12-11T02:32:39.386Z,100440.05
2022-12-11T02:35:16.192Z,100442.02
2022-12-11T02:37:48.798Z,100442.89
2022-12-11T02:40:25.096Z,100441.85
2022-12-11T02:42:59.015Z,100449.88
2022-12-11T02:45:32.109Z,100451.14
2022-12-11T02:48:05.821Z,100453.51
2022-12-11T02:50:39.068Z,100451.73
2022-12-11T02:53:12.331Z,100449.98
2022-12-11T02:55:45.064Z,100447.09
2022-12-11T02:58:20.581Z,100444.50
2022-12-11T03:00:51.559Z,100440.46
2022-12-11T03:03:22.784Z,100438.27
2022-12-11T03:05:53.349Z,100440.10
2022-12-11T03:08:23.828Z,100433.83
2022-12-11T03:10:54.271Z,100434.39
2022-12-11T03:13:25.565Z,100430.85
2022-12-11T03:16:05.886Z,100428.30
2022-12-11T03:18:45.980Z,100424.13
2022-12-11T03:21:23.443Z,100419.67
2022-12-11T03:24:02.833Z,100418.33
2022-12-11T03:26:38.772Z,100421.05
2022-12-11T03:29:17.669Z,100423.15
2022-12-11T03:31:52.488Z,100421.77
2022-12-11T03:34:29.195Z,100421.98
2022-12-11T03:37:01.142Z,100421.06
2022-12-11T03:39:34.341Z,100422.81
2022-12-11T03:42:08.968Z,100424.34
2022-12-11T03:44:39.983Z,100420.36
2022-12-11T03:47:11.859Z,100421.23
2022-12-11T03:49:45.783Z,100421.20
2022-12-11T03:52:18.280Z,100414.95
2022-12-11T03:54:51.731Z,100412.92
2022-12-11T03:57:26.895Z,100415.83
2022-12-11T03:59:57.640Z,100419.64
2022-12-11T04:02:28.446Z,100422.66
2022-12-11T04:04:58.828Z,100428.54
2022-12-11T04:07:31.347Z,100420.98
2022-12-11T04:10:04.092Z,100433.04
2022-12-11T04:12:34.773Z,100428.77
2022-12-11T04:15:05.833Z,100431.06
2022-12-11T04:17:55.638Z,100424.15
2022-12-11T04:20:55.093Z,100427.33
2022-12-11T04:23:43.368Z,100430.91
2022-12-11T04:26:15.914Z,100427.34
2022-12-11T04:28:48.116Z,100434.77
2022-12-11T04:31:20.812Z,100431.73
2022-12-11T04:33:51.387Z,100420.58
2022-12-11T04:36:21.782Z,100426.91
2022-12-11T04:38:52.596Z,100429.38
2022-12-11T04:41:23.203Z,100427.34
2022-12-11T04:43:53.706Z,100427.98
2022-12-11T04:46:26.182Z,100424.30
2022-12-11T04:48:57.942Z,100423.81
2022-12-11T04:51:29.504Z,100424.48
2022-12-11T04:54:00.848Z,100427.06
2022-12-11T04:56:31.517Z,100422.64
2022-12-11T04:59:02.237Z,100423.73
2022-12-11T05:01:33.271Z,100422.73
2022-12-11T05:04:04.101Z,100421.41
2022-12-11T05:06:34.760Z,100423.71
2022-12-11T05:09:05.294Z,100420.84
2022-12-11T05:11:38.542Z,100423.58
2022-12-11T05:14:09.323Z,100423.05
2022-12-11T05:16:39.687Z,100423.48
2022-12-11T05:19:10.079Z,100420.36
2022-12-11T05:21:40.611Z,100419.52
2022-12-11T05:24:11.556Z,100420.52
2022-12-11T05:26:42.365Z,100416.77
2022-12-11T05:29:13.403Z,100418.58
2022-12-11T05:31:43.894Z,100420.14
2022-12-11T05:34:15.208Z,100414.95
2022-12-11T05:36:45.570Z,100410.65
2022-12-11T05:39:15.982Z,100412.13
2022-12-11T05:41:46.376Z,100413.48
2022-12-11T05:44:16.936Z,100406.62
2022-12-11T05:46:47.310Z,100415.19
2022-12-11T05:49:20.032Z,100415.55
2022-12-11T05:51:50.631Z,100415.15
2022-12-11T05:54:21.027Z,100413.38
2022-12-11T05:56:52.171Z,100410.65
2022-12-11T05:59:23.139Z,100406.98
2022-12-11T06:01:53.761Z,100405.83
2022-12-11T06:04:24.504Z,100407.09
2022-12-11T06:06:56.986Z,100402.83
2022-12-11T06:09:27.376Z,100401.22
2022-12-11T06:11:57.786Z,100404.22
2022-12-11T06:14:28.407Z,100407.91
2022-12-11T06:16:59.143Z,100404.33
2022-12-11T06:19:33.485Z,100407.70
2022-12-11T06:22:07.494Z,100402.83
2022-12-11T06:24:38.538Z,100401.95
2022-12-11T06:27:09.140Z,100398.36
2022-12-11T06:29:39.478Z,100398.70
2022-12-11T06:32:10.384Z,100397.60
2022-12-11T06:34:41.005Z,100399.41
2022-12-11T06:37:11.872Z,100398.05
2022-12-11T06:39:42.308Z,100400.64
2022-12-11T06:42:13.459Z,100407.48
2022-12-11T06:44:44.127Z,100408.67
2022-12-11T06:47:14.481Z,100404.29
2022-12-11T06:49:45.109Z,100401.49
2022-12-11T06:52:18.591Z,100409.73
2022-12-11T06:54:49.557Z,100415.64
2022-12-11T06:57:20.728Z,100412.91
2022-12-11T06:59:52.105Z,100419.08
2022-12-11T07:02:23.272Z,100416.44
2022-12-11T07:04:55.331Z,100416.61
2022-12-11T07:07:26.131Z,100418.17
2022-12-11T07:09:57.131Z,100418.09
2022-12-11T07:12:27.631Z,100424.95
2022-12-11T07:14:58.380Z,100428.80
2022-12-11T07:17:29.265Z,100430.83
2022-12-11T07:19:59.688Z,100435.98
2022-12-11T07:22:31.183Z,100432.38
2022-12-11T07:25:02.124Z,100434.58
2022-12-11T07:27:33.236Z,100437.70
2022-12-11T07:30:05.103Z,100438.89
2022-12-11T07:32:35.868Z,100437.00
2022-12-11T07:35:07.208Z,100432.34
2022-12-11T07:37:40.788Z,100433.73
2022-12-11T07:40:14.504Z,100433.02
2022-12-11T07:42:46.424Z,100439.65
2022-12-11T07:45:17.516Z,100439.13
2022-12-11T07:47:48.320Z,100441.50
2022-12-11T07:50:19.012Z,100441.98
2022-12-11T07:52:49.403Z,100445.60
2022-12-11T07:55:20.422Z,100441.24
2022-12-11T07:57:50.868Z,100437.09
2022-12-11T08:00:21.771Z,100433.97
2022-12-11T08:02:52.862Z,100436.37
2022-12-11T08:05:23.653Z,100433.61
2022-12-11T08:07:54.471Z,100435.95
2022-12-11T08:10:25.575Z,100433.77
2022-12-11T08:12:56.989Z,100433.45
2022-12-11T08:15:27.382Z,100433.45
2022-12-11T08:17:58.047Z,100435.84
2022-12-11T08:20:28.465Z,100434.42
2022-12-11T08:22:59.601Z,100434.58
2022-12-11T08:25:30.014Z,100429.09
2022-12-11T08:28:00.454Z,100433.15
2022-12-11T08:30:31.875Z,100431.94
2022-12-11T08:33:02.398Z,100429.77
2022-12-11T08:35:33.430Z,100430.63
2022-12-11T08:38:04.260Z,100430.56
2022-12-11T08:40:34.716Z,100428.84
2022-12-11T08:43:05.537Z,100434.02
2022-12-11T08:45:36.085Z,100431.64
2022-12-11T08:48:06.887Z,100430.27
2022-12-11T08:50:38.172Z,100429.52
2022-12-11T08:53:08.676Z,100429.33
2022-12-11T08:55:39.411Z,100427.54
2022-12-11T08:58:09.889Z,100425.77
2022-12-11T09:00:40.722Z,100421.30
2022-12-11T09:03:13.093Z,100416.70
2022-12-11T09:05:44.197Z,100417.45
2022-12-11T09:08:14.975Z,100409.92
2022-12-11T09:10:45.690Z,100407.79
2022-12-11T09:13:16.556Z,100407.29
2022-12-11T09:15:47.517Z,100411.77
2022-12-11T09:18:18.077Z,100415.63
2022-12-11T09:20:48.987Z,100416.96
2022-12-11T09:23:19.921Z,100419.52
2022-12-11T09:25:50.842Z,100416.42
2022-12-11T09:28:21.464Z,100411.56
2022-12-11T09:30:52.478Z,100410.73
2022-12-11T09:33:23.312Z,100413.55
2022-12-11T09:36:00.916Z,100410.60
2022-12-11T09:38:31.873Z,100410.38
2022-12-11T09:41:03.350Z,100411.36
2022-12-11T09:43:43.129Z,100405.41
2022-12-11T09:46:16.542Z,100400.52
2022-12-11T09:48:49.253Z,100394.52
2022-12-11T09:51:25.788Z,100390.08
2022-12-11T09:53:57.985Z,100388.27
2022-12-11T09:56:33.806Z,100390.59
2022-12-11T09:59:11.887Z,100390.38
2022-12-11T10:01:45.150Z,100388.83
2022-12-11T10:04:32.175Z,100388.32
2022-12-11T10:07:13.027Z,100389.04
2022-12-11T10:09:50.240Z,100386.59
2022-12-11T10:12:39.991Z,100391.57
2022-12-11T10:15:25.244Z,100383.42
2022-12-11T10:18:04.398Z,100385.02
2022-12-11T10:20:39.411Z,100378.27
2022-12-11T10:23:17.725Z,100379.59
2022-12-11T10:25:54.900Z,100376.16
2022-12-11T10:28:28.336Z,100371.28
2022-12-11T10:31:08.704Z,100365.17
2022-12-11T10:33:47.537Z,100363.48
2022-12-11T10:36:26.370Z,100363.05
2022-12-11T10:38:56.848Z,100359.96
2022-12-11T10:41:37.931Z,100360.95
2022-12-11T10:44:18.872Z,100364.15
2022-12-11T10:46:50.980Z,100364.85
2022-12-11T10:49:31.112Z,100359.48
2022-12-11T10:52:02.438Z,100359.31
2022-12-11T10:54:38.040Z,100368.50
2022-12-11T10:57:11.209Z,100368.14
2022-12-11T10:59:46.663Z,100366.69
2022-12-11T11:02:24.165Z,100373.77
2022-12-11T11:04:56.817Z,100368.53
2022-12-11T11:07:30.033Z,100366.67
2022-12-11T11:10:18.442Z,100366.70
2022-12-11T11:12:50.561Z,100366.22
2022-12-11T11:15:26.419Z,100361.77
2022-12-11T11:17:58.580Z,100361.13
2022-12-11T11:20:31.992Z,100360.93
2022-12-11T11:23:04.512Z,100362.88
2022-12-11T11:25:36.606Z,100358.44
2022-12-11T11:28:16.572Z,100350.98
2022-12-11T11:31:01.538Z,100350.84
2022-12-11T11:33:34.328Z,100347.67
2022-12-11T11:36:08.752Z,100346.23
2022-12-11T11:38:45.397Z,100349.61
2022-12-11T11:41:20.815Z,100346.48
2022-12-11T11:43:55.793Z,100346.54
2022-12-11T11:46:31.703Z,100344.89
2022-12-11T11:49:10.046Z,100347.23
2022-12-11T11:51:44.293Z,100344.87
2022-12-11T11:54:32.834Z,100342.13
2022-12-11T11:57:12.412Z,100343.58
2022-12-11T11:59:48.237Z,100349.02
2022-12-11T12:02:20.950Z,100348.30
2022-12-11T12:04:51.928Z,100349.79
2022-12-11T12:07:38.993Z,100353.83
2022-12-11T12:10:22.820Z,100348.14
2022-12-11T12:13:01.407Z,100345.33
2022-12-11T12:15:44.790Z,100346.14
2022-12-11T12:18:23.746Z,100347.13
2022-12-11T12:21:02.088Z,100337.37
2022-12-11T12:23:50.624Z,100339.80
2022-12-11T12:26:28.894Z,100336.47
2022-12-11T12:29:12.463Z,100339.89
2022-12-11T12:31:57.001Z,100335.48
2022-12-11T12:34:42.896Z,100333.28
2022-12-11T12:37:24.750Z,100330.39
2022-12-11T12:40:04.733Z,100323.84
2022-12-11T12:42:47.005Z,100321.87
2022-12-11T12:45:29.738Z,100322.65
2022-12-11T12:48:00.340Z,100317.77
2022-12-11T12:50:38.526Z,100318.92
2022-12-11T12:53:14.079Z,100324.80
2022-12-11T12:55:45.540Z,100319.66
2022-12-11T12:58:29.407Z,100317.52
2022-12-11T13:01:11.817Z,100312.96
2022-12-11T13:03:55.390Z,100313.02
2022-12-11T13:06:35.245Z,100312.84
2022-12-11T13:09:19.562Z,100318.88
2022-12-11T13:11:53.732Z,100318.73
2022-12-11T13:14:33.313Z,100315.69
2022-12-11T13:17:26.322Z,100313.95
2022-12-11T13:20:15.241Z,100308.61
2022-12-11T13:23:08.767Z,100303.33
2022-12-11T13:25:54.429Z,100303.36
2022-12-11T13:28:48.221Z,100301.06
2022-12-11T13:31:45.249Z,100298.74
2022-12-11T13:34:23.598Z,100292.23
2022-12-11T13:36:55.580Z,100301.99
2022-12-11T13:39:31.485Z,100300.66
2022-12-11T13:42:14.509Z,100300.02
2022-12-11T13:44:51.293Z,100296.85
2022-12-11T13:47:35.663Z,100299.59
2022-12-11T13:50:22.326Z,100302.77
2022-12-11T13:53:01.672Z,100301.15
2022-12-11T13:55:35.523Z,100300.25
2022-12-11T13:58:16.492Z,100298.63
2022-12-11T14:01:03.913Z,100296.40
2022-12-11T14:03:35.883Z,100300.75
2022-12-11T14:06:14.864Z,100302.59
2022-12-11T14:08:53.413Z,100304.23
2022-12-11T14:11:28.644Z,100305.08
2022-12-11T14:14:01.447Z,100308.80
2022-12-11T14:16:33.230Z,100312.65
2022-12-11T14:19:06.686Z,100313.95
2022-12-11T14:21:37.788Z,100319.46
2022-12-11T14:24:13.416Z,100321.31
2022-12-11T14:26:52.931Z,100319.03
2022-12-11T14:29:32.699Z,100314.34
2022-12-11T14:32:06.722Z,100313.94
2022-12-11T14:34:43.524Z,100313.24
2022-12-11T14:37:18.794Z,100318.70
2022-12-11T14:39:56.292Z,100325.63
2022-12-11T14:42:29.898Z,100322.58
2022-12-11T14:45:04.644Z,100325.83
2022-12-11T14:47:39.764Z,100331.51
2022-12-11T14:50:17.943Z,100330.77
2022-12-11T14:52:53.339Z,100333.83
2022-12-11T14:55:27.375Z,100332.09
2022-12-11T14:58:01.020Z,100336.50
2022-12-11T15:00:35.757Z,100336.84
2022-12-11T15:03:08.508Z,100336.04
2022-12-11T15:05:49.708Z,100339.38
2022-12-11T15:08:24.919Z,100340.24
2022-12-11T15:11:16.264Z,100335.78
2022-12-11T15:13:53.089Z,100333.81
2022-12-11T15:16:26.340Z,100335.83
2022-12-11T15:18:58.760Z,100337.73
2022-12-11T15:21:33.834Z,100343.75
2022-12-11T15:24:07.034Z,100345.23
2022-12-11T15:26:39.850Z,100347.04
2022-12-11T15:29:33.165Z,100345.77
2022-12-11T15:32:05.917Z,100351.36
2022-12-11T15:34:43.760Z,100345.66
2022-12-11T15:37:22.714Z,100352.54
2022-12-11T15:39:54.918Z,100355.36
2022-12-11T15:42:30.957Z,100356.58
2022-12-11T15:45:07.609Z,100356.60
2022-12-11T15:47:38.084Z,100354.99
2022-12-11T15:50:18.655Z,100353.89
2022-12-11T15:52:50.481Z,100355.48
2022-12-11T15:55:22.436Z,100355.13
2022-12-11T15:57:55.542Z,100357.91
2022-12-11T16:00:28.146Z,100359.36
2022-12-11T16:02:59.145Z,100354.59
2022-12-11T16:05:29.755Z,100357.79
2022-12-11T16:08:00.383Z,100363.73
2022-12-11T16:10:31.099Z,100367.02
2022-12-11T16:13:02.776Z,100364.77
2022-12-11T16:15:33.786Z,100358.42
2022-12-11T16:18:07.072Z,100355.27
2022-12-11T16:20:39.088Z,100353.29
2022-12-11T16:23:10.089Z,100356.20
2022-12-11T16:25:42.535Z,100356.02
2022-12-11T16:28:15.486Z,100356.36
2022-12-11T16:30:47.346Z,100356.30
2022-12-11T16:33:17.920Z,100358.48
2022-12-11T16:35:48.382Z,100359.86
2022-12-11T16:38:18.997Z,100357.64
2022-12-11T16:40:49.393Z,100355.45
2022-12-11T16:43:20.233Z,100357.16
2022-12-11T16:45:56.789Z,100360.36
2022-12-11T16:48:28.012Z,100364.34
2022-12-11T16:50:58.562Z,100363.84
2022-12-11T16:53:29.444Z,100369.50
2022-12-11T16:55:59.799Z,100364.89
2022-12-11T16:58:30.308Z,100366.38
2022-12-11T17:01:03.068Z,100361.91
2022-12-11T17:03:34.518Z,100364.60
2022-12-11T17:06:09.778Z,100361.56
2022-12-11T17:08:41.242Z,100359.87
2022-12-11T17:11:15.354Z,100365.02
2022-12-11T17:13:46.920Z,100367.27
2022-12-11T17:16:18.726Z,100364.78
2022-12-11T17:18:50.190Z,100364.22
2022-12-11T17:21:25.180Z,100364.67
2022-12-11T17:23:56.297Z,100365.77
2022-12-11T17:26:28.562Z,100367.87
2022-12-11T17:29:00.633Z,100367.23
2022-12-11T17:31:31.817Z,100363.54
2022-12-11T17:34:02.852Z,100364.25
2022-12-11T17:36:34.017Z,100363.60
2022-12-11T17:39:04.907Z,100363.45
2022-12-11T17:41:35.710Z,100365.60
2022-12-11T17:44:06.792Z,100368.45
2022-12-11T17:46:37.673Z,100372.90
2022-12-11T17:49:08.463Z,100372.19
2022-12-11T17:51:38.948Z,100375.12
2022-12-11T17:54:09.395Z,100372.55
2022-12-11T17:56:40.642Z,100370.00
2022-12-11T17:59:11.474Z,100368.14
2022-12-11T18:01:41.906Z,100368.84
2022-12-11T18:04:12.801Z,100366.08
2022-12-11T18:06:43.241Z,100369.38
2022-12-11T18:09:13.658Z,100370.05
2022-12-11T18:11:44.438Z,100369.05
2022-12-11T18:14:17.323Z,100372.69
2022-12-11T18:16:48.738Z,100367.77
2022-12-11T18:19:19.514Z,100372.23
2022-12-11T18:21:50.526Z,100372.77
2022-12-11T18:24:21.132Z,100374.08
2022-12-11T18:26:51.560Z,100373.14
2022-12-11T18:29:22.024Z,100376.03
2022-12-11T18:31:52.607Z,100376.58
2022-12-11T18:34:23.057Z,100379.51
2022-12-11T18:36:54.108Z,100375.44
2022-12-11T18:39:24.876Z,100377.23
2022-12-11T18:42:30.728Z,100368.27
2022-12-11T18:44:48.287Z,100372.80
2022-12-11T18:47:18.773Z,100369.23
2022-12-11T18:49:49.594Z,100375.09
2022-12-11T18:52:20.014Z,100372.86
2022-12-11T18:54:52.309Z,100369.20
2022-12-11T18:57:22.772Z,100364.29
2022-12-11T18:59:56.271Z,100363.14
2022-12-11T19:02:27.076Z,100361.81
2022-12-11T19:04:57.560Z,100363.39
2022-12-11T19:07:28.743Z,100362.18
2022-12-11T19:09:59.553Z,100363.00
2022-12-11T19:12:30.612Z,100361.83
2022-12-11T19:15:01.226Z,100363.61
2022-12-11T19:17:31.972Z,100366.86
2022-12-11T19:20:25.095Z,100371.89
2022-12-11T19:22:53.819Z,100374.80
2022-12-11T19:25:24.854Z,100375.38
2022-12-11T19:27:57.057Z,100374.72
2022-12-11T19:30:27.988Z,100381.73
2022-12-11T19:32:58.578Z,100381.77
2022-12-11T19:35:29.019Z,100382.66
2022-12-11T19:37:59.507Z,100382.99
2022-12-11T19:40:30.992Z,100381.16
2022-12-11T19:43:01.833Z,100379.70
2022-12-11T19:45:32.601Z,100382.27
2022-12-11T19:48:03.446Z,100380.85
2022-12-11T19:50:36.201Z,100380.83
2022-12-11T19:53:06.859Z,100381.25
2022-12-11T19:55:38.007Z,100378.02
2022-12-11T19:58:08.816Z,100374.45
2022-12-11T20:00:40.892Z,100373.66
2022-12-11T20:03:11.742Z,100371.52
2022-12-11T20:05:42.685Z,100370.73
2022-12-11T20:08:42.951Z,100372.13
2022-12-11T20:11:08.835Z,100368.77
2022-12-11T20:13:45.609Z,100366.20
2022-12-11T20:16:17.907Z,100364.18
2022-12-11T20:18:49.620Z,100366.48
2022-12-11T20:21:21.147Z,100365.08
2022-12-11T20:23:51.890Z,100367.52
2022-12-11T20:26:24.416Z,100370.33
2022-12-11T20:28:55.433Z,100368.12
2022-12-11T20:31:27.756Z,100368.46
2022-12-11T20:33:58.810Z,100365.19
2022-12-11T20:36:29.987Z,100367.84
2022-12-11T20:39:00.761Z,100366.22
2022-12-11T20:41:31.168Z,100366.19
2022-12-11T20:44:02.401Z,100370.86
2022-12-11T20:46:32.839Z,100365.81
2022-12-11T20:49:03.547Z,100367.93
2022-12-11T20:51:34.055Z,100374.41
2022-12-11T20:54:04.508Z,100367.55
2022-12-11T20:56:34.880Z,100373.38
2022-12-11T20:59:05.786Z,100370.91
2022-12-11T21:01:36.277Z,100368.67
2022-12-11T21:04:07.020Z,100374.14
2022-12-11T21:06:40.468Z,100372.70
2022-12-11T21:09:13.297Z,100377.91
2022-12-11T21:11:43.689Z,100375.64
2022-12-11T21:14:14.184Z,100378.75
2022-12-11T21:16:44.922Z,100375.21
2022-12-11T21:19:17.343Z,100373.38
2022-12-11T21:21:48.593Z,100375.77
2022-12-11T21:24:21.200Z,100373.94
2022-12-11T21:26:52.164Z,100375.46
2022-12-11T21:29:23.617Z,100372.13
2022-12-11T21:31:54.611Z,100376.71
2022-12-11T21:34:26.012Z,100380.38
2022-12-11T21:36:57.553Z,100384.35
2022-12-11T21:39:29.283Z,100382.84
2022-12-11T21:42:00.590Z,100383.77
2022-12-11T21:47:22.292Z,100383.16
2022-12-11T21:49:53.214Z,100389.11
2022-12-11T21:52:24.101Z,100385.54
2022-12-11T21:54:55.142Z,100386.66
2022-12-11T21:57:26.770Z,100383.03
2022-12-11T21:59:58.192Z,100384.70
2022-12-11T22:02:28.557Z,100383.13
2022-12-11T22:05:02.534Z,100380.52
2022-12-11T22:07:32.875Z,100378.91
2022-12-11T22:10:04.206Z,100379.40
2022-12-11T22:12:35.135Z,100383.87
2022-12-11T22:15:06.584Z,100382.27
2022-12-11T22:17:37.687Z,100383.78
2022-12-11T22:20:10.122Z,100386.17
2022-12-11T22:22:40.499Z,100385.08
2022-12-11T22:25:11.915Z,100385.88
2022-12-11T22:27:43.106Z,100385.90
2022-12-11T22:30:15.319Z,100388.48
2022-12-11T22:32:45.762Z,100386.62
2022-12-11T22:35:16.292Z,100382.20
2022-12-11T22:37:47.103Z,100380.66
2022-12-11T22:40:17.456Z,100384.70
2022-12-11T22:42:48.311Z,100386.73
2022-12-11T22:45:19.266Z,100386.89
2022-12-11T22:47:50.203Z,100386.83
2022-12-11T22:50:20.631Z,100383.03
2022-12-11T22:52:51.542Z,100383.92
2022-12-11T22:55:22.149Z,100381.55
2022-12-11T22:57:52.905Z,100382.55
2022-12-11T23:00:23.534Z,100384.71
2022-12-11T23:02:53.995Z,100383.95
2022-12-11T23:05:24.490Z,100384.80
2022-12-11T23:07:55.796Z,100385.83
2022-12-11T23:10:26.717Z,100383.38
2022-12-11T23:12:57.719Z,100381.35
2022-12-11T23:15:28.270Z,100385.04
2022-12-11T23:17:58.902Z,100388.13
2022-12-11T23:20:29.887Z,100389.38
2022-12-11T23:23:00.996Z,100393.33
2022-12-11T23:25:31.385Z,100399.48
2022-12-11T23:28:02.181Z,100392.80
2022-12-11T23:30:32.643Z,100396.69
2022-12-11T23:33:03.071Z,100397.47
2022-12-11T23:35:33.779Z,100398.42
2022-12-11T23:38:05.499Z,100402.95
2022-12-11T23:40:36.408Z,100406.08
2022-12-11T23:43:07.203Z,100401.02
2022-12-11T23:45:37.933Z,100402.70
2022-12-11T23:48:08.457Z,100393.15
2022-12-11T23:50:39.663Z,100391.90
2022-12-11T23:53:10.139Z,100386.52
2022-12-11T23:55:44.151Z,100386.84
2022-12-11T23:58:15.252Z,100387.86
